sensor_id;sensor_type;location;lat;lon;timestamp;P1;durP1;ratioP1;P2;durP2;ratioP2
53903;SDS011;39812;52.430;16.936;2023-02-28T00:00:49;23.73;;;8.80;;
53903;SDS011;39812;52.430;16.936;2023-02-28T00:03:14;23.23;;;8.85;;
53903;SDS011;39812;52.430;16.936;2023-02-28T00:05:40;24.33;;;9.68;;
53903;SDS011;39812;52.430;16.936;2023-02-28T00:08:06;23.00;;;9.90;;
53903;SDS011;39812;52.430;16.936;2023-02-28T00:10:32;20.15;;;8.80;;
53903;SDS011;39812;52.430;16.936;2023-02-28T00:13:02;22.23;;;9.07;;
53903;SDS011;39812;52.430;16.936;2023-02-28T00:15:30;23.75;;;8.30;;
53903;SDS011;39812;52.430;16.936;2023-02-28T00:17:56;25.35;;;10.40;;
53903;SDS011;39812;52.430;16.936;2023-02-28T00:20:22;22.90;;;9.07;;
53903;SDS011;39812;52.430;16.936;2023-02-28T00:22:49;16.75;;;8.02;;
53903;SDS011;39812;52.430;16.936;2023-02-28T00:25:18;24.55;;;9.10;;
53903;SDS011;39812;52.430;16.936;2023-02-28T00:27:48;26.25;;;9.63;;
53903;SDS011;39812;52.430;16.936;2023-02-28T00:30:16;20.48;;;8.60;;
53903;SDS011;39812;52.430;16.936;2023-02-28T00:32:43;21.25;;;7.93;;
53903;SDS011;39812;52.430;16.936;2023-02-28T00:35:09;18.35;;;8.43;;
53903;SDS011;39812;52.430;16.936;2023-02-28T00:37:35;20.88;;;8.68;;
53903;SDS011;39812;52.430;16.936;2023-02-28T00:40:01;22.98;;;8.18;;
53903;SDS011;39812;52.430;16.936;2023-02-28T00:42:30;21.92;;;7.53;;
53903;SDS011;39812;52.430;16.936;2023-02-28T00:44:55;22.67;;;8.15;;
53903;SDS011;39812;52.430;16.936;2023-02-28T00:47:21;19.77;;;8.50;;
53903;SDS011;39812;52.430;16.936;2023-02-28T00:49:47;20.80;;;8.10;;
53903;SDS011;39812;52.430;16.936;2023-02-28T00:52:12;19.63;;;8.73;;
53903;SDS011;39812;52.430;16.936;2023-02-28T00:54:38;21.17;;;9.02;;
53903;SDS011;39812;52.430;16.936;2023-02-28T00:57:04;30.33;;;10.00;;
53903;SDS011;39812;52.430;16.936;2023-02-28T00:59:29;21.90;;;8.85;;
53903;SDS011;39812;52.430;16.936;2023-02-28T01:01:55;25.23;;;9.05;;
53903;SDS011;39812;52.430;16.936;2023-02-28T01:04:21;22.27;;;8.10;;
53903;SDS011;39812;52.430;16.936;2023-02-28T01:06:47;18.25;;;8.98;;
53903;SDS011;39812;52.430;16.936;2023-02-28T01:09:12;22.27;;;7.53;;
53903;SDS011;39812;52.430;16.936;2023-02-28T01:11:38;19.05;;;7.28;;
53903;SDS011;39812;52.430;16.936;2023-02-28T01:14:05;16.35;;;6.35;;
53903;SDS011;39812;52.430;16.936;2023-02-28T01:16:31;19.08;;;7.40;;
53903;SDS011;39812;52.430;16.936;2023-02-28T01:18:57;17.90;;;6.97;;
53903;SDS011;39812;52.430;16.936;2023-02-28T01:21:23;17.85;;;6.90;;
53903;SDS011;39812;52.430;16.936;2023-02-28T01:23:49;15.18;;;6.65;;
53903;SDS011;39812;52.430;16.936;2023-02-28T01:26:16;16.85;;;7.20;;
53903;SDS011;39812;52.430;16.936;2023-02-28T01:28:45;15.35;;;5.88;;
53903;SDS011;39812;52.430;16.936;2023-02-28T01:31:11;15.23;;;6.85;;
53903;SDS011;39812;52.430;16.936;2023-02-28T01:33:37;17.55;;;6.75;;
53903;SDS011;39812;52.430;16.936;2023-02-28T01:36:08;14.60;;;6.38;;
53903;SDS011;39812;52.430;16.936;2023-02-28T01:38:39;13.02;;;5.65;;
53903;SDS011;39812;52.430;16.936;2023-02-28T01:41:05;15.43;;;6.55;;
53903;SDS011;39812;52.430;16.936;2023-02-28T01:43:53;15.45;;;6.47;;
53903;SDS011;39812;52.430;16.936;2023-02-28T01:46:22;15.27;;;6.13;;
53903;SDS011;39812;52.430;16.936;2023-02-28T01:48:53;20.23;;;7.63;;
53903;SDS011;39812;52.430;16.936;2023-02-28T01:51:37;14.57;;;6.43;;
53903;SDS011;39812;52.430;16.936;2023-02-28T01:54:16;14.93;;;6.95;;
53903;SDS011;39812;52.430;16.936;2023-02-28T01:56:57;18.42;;;6.47;;
53903;SDS011;39812;52.430;16.936;2023-02-28T01:59:37;15.50;;;7.07;;
53903;SDS011;39812;52.430;16.936;2023-02-28T02:02:11;13.27;;;6.97;;
53903;SDS011;39812;52.430;16.936;2023-02-28T02:04:44;14.02;;;6.57;;
53903;SDS011;39812;52.430;16.936;2023-02-28T02:07:33;15.55;;;6.72;;
53903;SDS011;39812;52.430;16.936;2023-02-28T02:10:09;13.40;;;6.35;;
53903;SDS011;39812;52.430;16.936;2023-02-28T02:15:16;21.75;;;7.43;;
53903;SDS011;39812;52.430;16.936;2023-02-28T02:17:52;13.18;;;6.68;;
53903;SDS011;39812;52.430;16.936;2023-02-28T02:20:32;15.70;;;7.60;;
53903;SDS011;39812;52.430;16.936;2023-02-28T02:23:27;19.35;;;9.27;;
53903;SDS011;39812;52.430;16.936;2023-02-28T02:26:01;18.60;;;7.65;;
53903;SDS011;39812;52.430;16.936;2023-02-28T02:37:08;13.98;;;7.10;;
53903;SDS011;39812;52.430;16.936;2023-02-28T02:42:16;11.68;;;6.20;;
53903;SDS011;39812;52.430;16.936;2023-02-28T02:45:03;15.93;;;6.45;;
53903;SDS011;39812;52.430;16.936;2023-02-28T02:47:34;13.73;;;6.63;;
53903;SDS011;39812;52.430;16.936;2023-02-28T02:50:02;13.55;;;6.65;;
53903;SDS011;39812;52.430;16.936;2023-02-28T02:52:39;21.55;;;8.13;;
53903;SDS011;39812;52.430;16.936;2023-02-28T02:55:08;22.42;;;7.68;;
53903;SDS011;39812;52.430;16.936;2023-02-28T02:57:38;16.33;;;7.40;;
53903;SDS011;39812;52.430;16.936;2023-02-28T03:00:09;15.98;;;8.52;;
53903;SDS011;39812;52.430;16.936;2023-02-28T03:02:36;20.20;;;7.90;;
53903;SDS011;39812;52.430;16.936;2023-02-28T03:05:08;18.92;;;8.57;;
53903;SDS011;39812;52.430;16.936;2023-02-28T03:07:41;18.63;;;7.88;;
53903;SDS011;39812;52.430;16.936;2023-02-28T03:10:29;15.52;;;6.50;;
53903;SDS011;39812;52.430;16.936;2023-02-28T03:13:10;13.52;;;7.82;;
53903;SDS011;39812;52.430;16.936;2023-02-28T03:27:09;17.00;;;8.13;;
53903;SDS011;39812;52.430;16.936;2023-02-28T03:29:43;23.98;;;9.93;;
53903;SDS011;39812;52.430;16.936;2023-02-28T03:32:23;14.73;;;8.07;;
53903;SDS011;39812;52.430;16.936;2023-02-28T03:37:47;20.88;;;7.60;;
53903;SDS011;39812;52.430;16.936;2023-02-28T03:40:33;23.45;;;8.15;;
53903;SDS011;39812;52.430;16.936;2023-02-28T03:43:03;19.98;;;8.48;;
53903;SDS011;39812;52.430;16.936;2023-02-28T03:45:37;24.33;;;8.77;;
53903;SDS011;39812;52.430;16.936;2023-02-28T03:48:17;20.65;;;9.45;;
53903;SDS011;39812;52.430;16.936;2023-02-28T03:50:52;23.43;;;10.53;;
53903;SDS011;39812;52.430;16.936;2023-02-28T03:55:48;22.35;;;9.52;;
53903;SDS011;39812;52.430;16.936;2023-02-28T04:00:47;24.80;;;11.38;;
53903;SDS011;39812;52.430;16.936;2023-02-28T04:03:18;22.73;;;9.77;;
53903;SDS011;39812;52.430;16.936;2023-02-28T04:05:45;20.90;;;9.57;;
53903;SDS011;39812;52.430;16.936;2023-02-28T04:08:16;21.65;;;9.65;;
53903;SDS011;39812;52.430;16.936;2023-02-28T04:10:42;24.95;;;10.43;;
53903;SDS011;39812;52.430;16.936;2023-02-28T04:13:13;30.23;;;10.77;;
53903;SDS011;39812;52.430;16.936;2023-02-28T04:15:38;22.38;;;10.10;;
53903;SDS011;39812;52.430;16.936;2023-02-28T04:18:04;25.77;;;11.75;;
53903;SDS011;39812;52.430;16.936;2023-02-28T04:20:30;23.20;;;11.27;;
53903;SDS011;39812;52.430;16.936;2023-02-28T04:22:56;25.05;;;11.00;;
53903;SDS011;39812;52.430;16.936;2023-02-28T04:25:22;26.80;;;10.73;;
53903;SDS011;39812;52.430;16.936;2023-02-28T04:27:47;29.02;;;11.68;;
53903;SDS011;39812;52.430;16.936;2023-02-28T04:30:13;22.10;;;11.07;;
53903;SDS011;39812;52.430;16.936;2023-02-28T04:32:39;24.50;;;9.48;;
53903;SDS011;39812;52.430;16.936;2023-02-28T04:35:04;25.20;;;11.32;;
53903;SDS011;39812;52.430;16.936;2023-02-28T04:37:30;24.27;;;10.43;;
53903;SDS011;39812;52.430;16.936;2023-02-28T04:39:59;21.80;;;10.05;;
53903;SDS011;39812;52.430;16.936;2023-02-28T04:42:26;31.52;;;11.50;;
53903;SDS011;39812;52.430;16.936;2023-02-28T04:44:51;24.08;;;10.93;;
53903;SDS011;39812;52.430;16.936;2023-02-28T04:47:17;21.45;;;10.77;;
53903;SDS011;39812;52.430;16.936;2023-02-28T04:49:43;31.17;;;10.13;;
53903;SDS011;39812;52.430;16.936;2023-02-28T04:52:08;23.63;;;9.75;;
53903;SDS011;39812;52.430;16.936;2023-02-28T04:54:35;19.27;;;9.15;;
53903;SDS011;39812;52.430;16.936;2023-02-28T04:57:01;27.83;;;9.93;;
53903;SDS011;39812;52.430;16.936;2023-02-28T04:59:26;21.08;;;8.43;;
53903;SDS011;39812;52.430;16.936;2023-02-28T05:01:52;27.33;;;10.38;;
53903;SDS011;39812;52.430;16.936;2023-02-28T05:04:18;30.63;;;10.32;;
53903;SDS011;39812;52.430;16.936;2023-02-28T05:06:43;21.38;;;9.77;;
53903;SDS011;39812;52.430;16.936;2023-02-28T05:09:09;19.70;;;9.35;;
53903;SDS011;39812;52.430;16.936;2023-02-28T05:11:38;33.75;;;10.32;;
53903;SDS011;39812;52.430;16.936;2023-02-28T05:14:05;23.33;;;10.80;;
53903;SDS011;39812;52.430;16.936;2023-02-28T05:16:38;22.13;;;9.38;;
53903;SDS011;39812;52.430;16.936;2023-02-28T05:19:03;20.75;;;8.80;;
53903;SDS011;39812;52.430;16.936;2023-02-28T05:21:30;21.02;;;8.88;;
53903;SDS011;39812;52.430;16.936;2023-02-28T05:23:57;21.83;;;9.55;;
53903;SDS011;39812;52.430;16.936;2023-02-28T05:26:25;19.33;;;9.15;;
53903;SDS011;39812;52.430;16.936;2023-02-28T05:28:52;28.10;;;9.95;;
53903;SDS011;39812;52.430;16.936;2023-02-28T05:31:18;19.13;;;9.40;;
53903;SDS011;39812;52.430;16.936;2023-02-28T05:33:44;25.48;;;10.38;;
53903;SDS011;39812;52.430;16.936;2023-02-28T05:36:09;25.75;;;10.48;;
53903;SDS011;39812;52.430;16.936;2023-02-28T05:38:35;27.88;;;11.38;;
53903;SDS011;39812;52.430;16.936;2023-02-28T05:41:04;22.27;;;9.82;;
53903;SDS011;39812;52.430;16.936;2023-02-28T05:43:31;21.10;;;9.68;;
53903;SDS011;39812;52.430;16.936;2023-02-28T05:45:56;32.70;;;12.45;;
53903;SDS011;39812;52.430;16.936;2023-02-28T05:48:22;23.45;;;11.38;;
53903;SDS011;39812;52.430;16.936;2023-02-28T05:50:48;25.00;;;11.15;;
53903;SDS011;39812;52.430;16.936;2023-02-28T05:53:13;18.92;;;10.75;;
53903;SDS011;39812;52.430;16.936;2023-02-28T05:55:39;26.30;;;11.50;;
53903;SDS011;39812;52.430;16.936;2023-02-28T05:58:06;29.27;;;11.90;;
53903;SDS011;39812;52.430;16.936;2023-02-28T06:00:31;28.60;;;12.32;;
53903;SDS011;39812;52.430;16.936;2023-02-28T06:02:57;35.58;;;13.15;;
53903;SDS011;39812;52.430;16.936;2023-02-28T06:05:26;28.58;;;10.90;;
53903;SDS011;39812;52.430;16.936;2023-02-28T06:07:52;25.15;;;10.68;;
53903;SDS011;39812;52.430;16.936;2023-02-28T06:10:18;30.70;;;12.00;;
53903;SDS011;39812;52.430;16.936;2023-02-28T06:12:44;35.30;;;12.18;;
53903;SDS011;39812;52.430;16.936;2023-02-28T06:15:14;28.63;;;12.07;;
53903;SDS011;39812;52.430;16.936;2023-02-28T06:17:43;36.10;;;13.25;;
53903;SDS011;39812;52.430;16.936;2023-02-28T06:20:09;28.13;;;12.30;;
53903;SDS011;39812;52.430;16.936;2023-02-28T06:22:37;34.08;;;12.73;;
53903;SDS011;39812;52.430;16.936;2023-02-28T06:25:04;28.17;;;11.82;;
53903;SDS011;39812;52.430;16.936;2023-02-28T06:27:31;31.92;;;12.27;;
53903;SDS011;39812;52.430;16.936;2023-02-28T06:29:57;26.05;;;11.95;;
53903;SDS011;39812;52.430;16.936;2023-02-28T06:32:23;27.35;;;12.63;;
53903;SDS011;39812;52.430;16.936;2023-02-28T06:34:49;25.08;;;12.25;;
53903;SDS011;39812;52.430;16.936;2023-02-28T06:37:15;27.45;;;12.13;;
53903;SDS011;39812;52.430;16.936;2023-02-28T06:39:42;36.40;;;11.93;;
53903;SDS011;39812;52.430;16.936;2023-02-28T06:42:08;25.35;;;13.15;;
53903;SDS011;39812;52.430;16.936;2023-02-28T06:44:33;21.83;;;11.82;;
53903;SDS011;39812;52.430;16.936;2023-02-28T06:47:03;26.85;;;12.35;;
53903;SDS011;39812;52.430;16.936;2023-02-28T06:49:31;28.05;;;11.10;;
53903;SDS011;39812;52.430;16.936;2023-02-28T06:51:57;29.23;;;11.07;;
53903;SDS011;39812;52.430;16.936;2023-02-28T06:54:23;26.60;;;10.98;;
53903;SDS011;39812;52.430;16.936;2023-02-28T06:56:48;26.88;;;10.73;;
53903;SDS011;39812;52.430;16.936;2023-02-28T06:59:14;27.90;;;10.35;;
53903;SDS011;39812;52.430;16.936;2023-02-28T07:01:40;24.25;;;10.05;;
53903;SDS011;39812;52.430;16.936;2023-02-28T07:04:05;27.58;;;10.23;;
53903;SDS011;39812;52.430;16.936;2023-02-28T07:06:32;26.58;;;9.80;;
53903;SDS011;39812;52.430;16.936;2023-02-28T07:08:57;24.02;;;10.73;;
53903;SDS011;39812;52.430;16.936;2023-02-28T07:11:25;26.73;;;10.75;;
53903;SDS011;39812;52.430;16.936;2023-02-28T07:13:52;26.30;;;9.80;;
53903;SDS011;39812;52.430;16.936;2023-02-28T07:16:21;27.38;;;10.55;;
53903;SDS011;39812;52.430;16.936;2023-02-28T07:18:47;22.42;;;9.23;;
53903;SDS011;39812;52.430;16.936;2023-02-28T07:21:13;22.83;;;9.27;;
53903;SDS011;39812;52.430;16.936;2023-02-28T07:23:40;20.50;;;9.48;;
53903;SDS011;39812;52.430;16.936;2023-02-28T07:26:06;32.65;;;11.48;;
53903;SDS011;39812;52.430;16.936;2023-02-28T07:28:36;22.70;;;10.35;;
53903;SDS011;39812;52.430;16.936;2023-02-28T07:31:06;19.23;;;9.27;;
53903;SDS011;39812;52.430;16.936;2023-02-28T07:33:32;22.83;;;10.25;;
53903;SDS011;39812;52.430;16.936;2023-02-28T07:36:06;24.27;;;10.18;;
53903;SDS011;39812;52.430;16.936;2023-02-28T07:41:00;28.48;;;9.40;;
53903;SDS011;39812;52.430;16.936;2023-02-28T07:43:29;21.35;;;9.57;;
53903;SDS011;39812;52.430;16.936;2023-02-28T07:45:55;21.75;;;9.38;;
53903;SDS011;39812;52.430;16.936;2023-02-28T07:48:25;24.83;;;9.75;;
53903;SDS011;39812;52.430;16.936;2023-02-28T07:50:55;25.58;;;10.32;;
53903;SDS011;39812;52.430;16.936;2023-02-28T07:53:21;25.83;;;9.90;;
53903;SDS011;39812;52.430;16.936;2023-02-28T07:55:47;24.02;;;10.13;;
53903;SDS011;39812;52.430;16.936;2023-02-28T07:58:13;24.65;;;10.07;;
53903;SDS011;39812;52.430;16.936;2023-02-28T08:00:38;29.30;;;11.77;;
53903;SDS011;39812;52.430;16.936;2023-02-28T08:03:04;32.35;;;11.30;;
53903;SDS011;39812;52.430;16.936;2023-02-28T08:05:30;24.08;;;10.35;;
53903;SDS011;39812;52.430;16.936;2023-02-28T08:07:55;23.60;;;10.00;;
53903;SDS011;39812;52.430;16.936;2023-02-28T08:10:21;27.17;;;12.20;;
53903;SDS011;39812;52.430;16.936;2023-02-28T08:12:47;24.77;;;11.18;;
53903;SDS011;39812;52.430;16.936;2023-02-28T08:15:13;29.48;;;12.25;;
53903;SDS011;39812;52.430;16.936;2023-02-28T08:17:38;29.67;;;12.43;;
53903;SDS011;39812;52.430;16.936;2023-02-28T08:20:04;38.15;;;13.30;;
53903;SDS011;39812;52.430;16.936;2023-02-28T08:22:30;31.63;;;12.85;;
53903;SDS011;39812;52.430;16.936;2023-02-28T08:24:56;29.73;;;11.20;;
53903;SDS011;39812;52.430;16.936;2023-02-28T08:27:22;26.55;;;10.57;;
53903;SDS011;39812;52.430;16.936;2023-02-28T08:29:47;27.02;;;11.05;;
53903;SDS011;39812;52.430;16.936;2023-02-28T08:32:13;28.48;;;12.23;;
53903;SDS011;39812;52.430;16.936;2023-02-28T08:34:39;23.02;;;10.50;;
53903;SDS011;39812;52.430;16.936;2023-02-28T08:37:05;24.08;;;10.82;;
53903;SDS011;39812;52.430;16.936;2023-02-28T08:39:33;20.00;;;8.65;;
53903;SDS011;39812;52.430;16.936;2023-02-28T08:42:00;23.50;;;10.05;;
53903;SDS011;39812;52.430;16.936;2023-02-28T08:44:27;26.08;;;10.82;;
53903;SDS011;39812;52.430;16.936;2023-02-28T08:46:53;27.98;;;11.60;;
53903;SDS011;39812;52.430;16.936;2023-02-28T08:49:19;30.45;;;11.55;;
53903;SDS011;39812;52.430;16.936;2023-02-28T08:51:44;25.33;;;10.80;;
53903;SDS011;39812;52.430;16.936;2023-02-28T08:54:10;28.88;;;10.63;;
53903;SDS011;39812;52.430;16.936;2023-02-28T08:56:37;22.08;;;10.48;;
53903;SDS011;39812;52.430;16.936;2023-02-28T08:59:03;20.33;;;10.38;;
53903;SDS011;39812;52.430;16.936;2023-02-28T09:01:29;26.50;;;10.20;;
53903;SDS011;39812;52.430;16.936;2023-02-28T09:03:56;34.30;;;11.63;;
53903;SDS011;39812;52.430;16.936;2023-02-28T09:06:23;27.23;;;11.05;;
53903;SDS011;39812;52.430;16.936;2023-02-28T09:08:50;23.83;;;9.88;;
53903;SDS011;39812;52.430;16.936;2023-02-28T09:11:17;25.63;;;9.73;;
53903;SDS011;39812;52.430;16.936;2023-02-28T09:13:44;24.75;;;10.15;;
53903;SDS011;39812;52.430;16.936;2023-02-28T09:16:12;23.33;;;9.85;;
53903;SDS011;39812;52.430;16.936;2023-02-28T09:18:41;23.88;;;10.55;;
53903;SDS011;39812;52.430;16.936;2023-02-28T09:21:07;23.30;;;12.18;;
53903;SDS011;39812;52.430;16.936;2023-02-28T09:23:34;26.27;;;10.35;;
53903;SDS011;39812;52.430;16.936;2023-02-28T09:26:03;21.50;;;9.02;;
53903;SDS011;39812;52.430;16.936;2023-02-28T09:28:29;20.52;;;8.73;;
53903;SDS011;39812;52.430;16.936;2023-02-28T09:30:55;19.48;;;8.57;;
53903;SDS011;39812;52.430;16.936;2023-02-28T09:33:22;16.88;;;7.47;;
53903;SDS011;39812;52.430;16.936;2023-02-28T09:35:51;15.65;;;6.72;;
53903;SDS011;39812;52.430;16.936;2023-02-28T09:38:22;18.38;;;6.28;;
53903;SDS011;39812;52.430;16.936;2023-02-28T09:40:49;14.57;;;7.13;;
53903;SDS011;39812;52.430;16.936;2023-02-28T09:43:16;18.92;;;8.13;;
53903;SDS011;39812;52.430;16.936;2023-02-28T09:48:46;23.67;;;9.57;;
53903;SDS011;39812;52.430;16.936;2023-02-28T09:53:42;25.73;;;8.55;;
53903;SDS011;39812;52.430;16.936;2023-02-28T09:56:31;17.17;;;7.50;;
53903;SDS011;39812;52.430;16.936;2023-02-28T09:59:00;13.98;;;5.88;;
53903;SDS011;39812;52.430;16.936;2023-02-28T10:01:54;13.00;;;6.00;;
53903;SDS011;39812;52.430;16.936;2023-02-28T10:10:15;14.95;;;7.10;;
53903;SDS011;39812;52.430;16.936;2023-02-28T10:13:04;15.93;;;7.50;;
53903;SDS011;39812;52.430;16.936;2023-02-28T10:15:53;17.65;;;7.22;;
53903;SDS011;39812;52.430;16.936;2023-02-28T10:18:40;17.50;;;7.57;;
53903;SDS011;39812;52.430;16.936;2023-02-28T10:21:13;17.50;;;6.97;;
53903;SDS011;39812;52.430;16.936;2023-02-28T10:23:47;9.73;;;4.80;;
53903;SDS011;39812;52.430;16.936;2023-02-28T10:26:16;14.25;;;6.18;;
53903;SDS011;39812;52.430;16.936;2023-02-28T10:28:42;12.07;;;5.68;;
53903;SDS011;39812;52.430;16.936;2023-02-28T10:31:11;11.23;;;5.60;;
53903;SDS011;39812;52.430;16.936;2023-02-28T10:33:42;11.17;;;5.63;;
53903;SDS011;39812;52.430;16.936;2023-02-28T10:36:10;10.13;;;3.97;;
53903;SDS011;39812;52.430;16.936;2023-02-28T10:38:43;13.25;;;5.28;;
53903;SDS011;39812;52.430;16.936;2023-02-28T10:43:40;12.23;;;5.93;;
53903;SDS011;39812;52.430;16.936;2023-02-28T10:51:05;14.30;;;4.85;;
53903;SDS011;39812;52.430;16.936;2023-02-28T11:03:57;13.88;;;4.93;;
53903;SDS011;39812;52.430;16.936;2023-02-28T11:06:26;10.30;;;5.15;;
53903;SDS011;39812;52.430;16.936;2023-02-28T11:11:24;10.18;;;4.93;;
53903;SDS011;39812;52.430;16.936;2023-02-28T11:13:53;13.45;;;5.32;;
53903;SDS011;39812;52.430;16.936;2023-02-28T11:16:21;10.70;;;5.07;;
53903;SDS011;39812;52.430;16.936;2023-02-28T11:18:57;11.38;;;5.03;;
53903;SDS011;39812;52.430;16.936;2023-02-28T11:21:26;13.02;;;5.35;;
53903;SDS011;39812;52.430;16.936;2023-02-28T11:23:53;10.60;;;5.30;;
53903;SDS011;39812;52.430;16.936;2023-02-28T11:26:42;11.18;;;5.63;;
53903;SDS011;39812;52.430;16.936;2023-02-28T11:29:11;10.02;;;4.88;;
53903;SDS011;39812;52.430;16.936;2023-02-28T11:31:42;8.73;;;4.40;;
53903;SDS011;39812;52.430;16.936;2023-02-28T11:34:22;12.05;;;4.40;;
53903;SDS011;39812;52.430;16.936;2023-02-28T11:36:53;10.75;;;4.93;;
53903;SDS011;39812;52.430;16.936;2023-02-28T11:39:21;11.18;;;5.38;;
53903;SDS011;39812;52.430;16.936;2023-02-28T11:47:19;11.50;;;5.10;;
53903;SDS011;39812;52.430;16.936;2023-02-28T11:53:00;8.98;;;4.10;;
53903;SDS011;39812;52.430;16.936;2023-02-28T11:55:36;13.98;;;5.45;;
53903;SDS011;39812;52.430;16.936;2023-02-28T12:01:09;11.43;;;4.68;;
53903;SDS011;39812;52.430;16.936;2023-02-28T12:17:10;9.32;;;4.28;;
53903;SDS011;39812;52.430;16.936;2023-02-28T12:19:54;7.47;;;3.85;;
53903;SDS011;39812;52.430;16.936;2023-02-28T12:22:30;6.45;;;3.75;;
53903;SDS011;39812;52.430;16.936;2023-02-28T12:27:44;7.20;;;3.57;;
53903;SDS011;39812;52.430;16.936;2023-02-28T12:30:16;7.88;;;3.58;;
53903;SDS011;39812;52.430;16.936;2023-02-28T12:33:02;7.38;;;3.83;;
53903;SDS011;39812;52.430;16.936;2023-02-28T12:35:44;7.80;;;3.85;;
53903;SDS011;39812;52.430;16.936;2023-02-28T12:38:20;7.95;;;3.97;;
53903;SDS011;39812;52.430;16.936;2023-02-28T12:40:49;8.38;;;4.47;;
53903;SDS011;39812;52.430;16.936;2023-02-28T12:43:22;7.63;;;4.55;;
53903;SDS011;39812;52.430;16.936;2023-02-28T12:45:56;8.73;;;4.38;;
53903;SDS011;39812;52.430;16.936;2023-02-28T12:48:29;6.85;;;4.20;;
53903;SDS011;39812;52.430;16.936;2023-02-28T12:51:02;8.82;;;4.22;;
53903;SDS011;39812;52.430;16.936;2023-02-28T13:06:56;6.40;;;4.38;;
53903;SDS011;39812;52.430;16.936;2023-02-28T13:09:51;7.68;;;4.55;;
53903;SDS011;39812;52.430;16.936;2023-02-28T13:12:19;11.32;;;4.57;;
53903;SDS011;39812;52.430;16.936;2023-02-28T13:14:45;8.57;;;4.35;;
53903;SDS011;39812;52.430;16.936;2023-02-28T13:17:12;9.20;;;4.60;;
53903;SDS011;39812;52.430;16.936;2023-02-28T13:22:20;9.70;;;5.05;;
53903;SDS011;39812;52.430;16.936;2023-02-28T13:24:52;6.78;;;3.90;;
53903;SDS011;39812;52.430;16.936;2023-02-28T13:27:32;8.70;;;4.60;;
53903;SDS011;39812;52.430;16.936;2023-02-28T13:35:45;9.15;;;4.57;;
53903;SDS011;39812;52.430;16.936;2023-02-28T13:38:24;8.65;;;4.28;;
53903;SDS011;39812;52.430;16.936;2023-02-28T13:46:25;9.27;;;5.68;;
53903;SDS011;39812;52.430;16.936;2023-02-28T13:48:50;8.60;;;4.72;;
53903;SDS011;39812;52.430;16.936;2023-02-28T13:57:07;11.02;;;5.25;;
53903;SDS011;39812;52.430;16.936;2023-02-28T14:02:40;7.35;;;4.72;;
53903;SDS011;39812;52.430;16.936;2023-02-28T14:05:18;9.50;;;5.55;;
53903;SDS011;39812;52.430;16.936;2023-02-28T14:07:50;9.38;;;5.13;;
53903;SDS011;39812;52.430;16.936;2023-02-28T14:10:42;7.88;;;4.25;;
53903;SDS011;39812;52.430;16.936;2023-02-28T14:13:12;10.00;;;5.40;;
53903;SDS011;39812;52.430;16.936;2023-02-28T14:16:01;7.78;;;4.55;;
53903;SDS011;39812;52.430;16.936;2023-02-28T14:18:32;7.05;;;4.25;;
53903;SDS011;39812;52.430;16.936;2023-02-28T14:21:09;10.55;;;5.43;;
53903;SDS011;39812;52.430;16.936;2023-02-28T14:23:43;9.93;;;4.93;;
53903;SDS011;39812;52.430;16.936;2023-02-28T14:31:29;9.05;;;5.82;;
53903;SDS011;39812;52.430;16.936;2023-02-28T14:36:57;9.02;;;5.43;;
53903;SDS011;39812;52.430;16.936;2023-02-28T14:39:26;8.82;;;5.28;;
53903;SDS011;39812;52.430;16.936;2023-02-28T14:41:55;10.63;;;5.82;;
53903;SDS011;39812;52.430;16.936;2023-02-28T14:44:27;8.85;;;5.38;;
53903;SDS011;39812;52.430;16.936;2023-02-28T14:46:56;10.98;;;5.25;;
53903;SDS011;39812;52.430;16.936;2023-02-28T14:49:34;9.15;;;4.85;;
53903;SDS011;39812;52.430;16.936;2023-02-28T14:52:16;8.90;;;5.63;;
53903;SDS011;39812;52.430;16.936;2023-02-28T14:54:46;9.35;;;4.57;;
53903;SDS011;39812;52.430;16.936;2023-02-28T14:57:22;8.32;;;5.18;;
53903;SDS011;39812;52.430;16.936;2023-02-28T15:02:47;10.15;;;5.40;;
53903;SDS011;39812;52.430;16.936;2023-02-28T15:07:40;9.15;;;5.22;;
53903;SDS011;39812;52.430;16.936;2023-02-28T15:10:25;8.98;;;5.45;;
53903;SDS011;39812;52.430;16.936;2023-02-28T15:15:22;10.60;;;5.03;;
53903;SDS011;39812;52.430;16.936;2023-02-28T15:18:05;11.57;;;5.53;;
53903;SDS011;39812;52.430;16.936;2023-02-28T15:20:32;9.35;;;4.82;;
53903;SDS011;39812;52.430;16.936;2023-02-28T15:23:00;9.13;;;4.85;;
53903;SDS011;39812;52.430;16.936;2023-02-28T15:25:26;11.68;;;5.22;;
53903;SDS011;39812;52.430;16.936;2023-02-28T15:27:53;10.48;;;5.35;;
53903;SDS011;39812;52.430;16.936;2023-02-28T15:30:25;9.75;;;5.38;;
53903;SDS011;39812;52.430;16.936;2023-02-28T15:35:51;8.98;;;5.57;;
53903;SDS011;39812;52.430;16.936;2023-02-28T15:38:28;7.95;;;4.80;;
53903;SDS011;39812;52.430;16.936;2023-02-28T15:40:55;11.63;;;5.55;;
53903;SDS011;39812;52.430;16.936;2023-02-28T15:43:28;10.85;;;5.82;;
53903;SDS011;39812;52.430;16.936;2023-02-28T15:48:29;10.85;;;5.75;;
53903;SDS011;39812;52.430;16.936;2023-02-28T15:51:00;12.13;;;5.90;;
53903;SDS011;39812;52.430;16.936;2023-02-28T15:53:47;9.87;;;5.87;;
53903;SDS011;39812;52.430;16.936;2023-02-28T15:56:25;14.40;;;5.82;;
53903;SDS011;39812;52.430;16.936;2023-02-28T15:58:56;10.52;;;5.68;;
53903;SDS011;39812;52.430;16.936;2023-02-28T16:01:34;12.20;;;5.65;;
53903;SDS011;39812;52.430;16.936;2023-02-28T16:04:03;10.82;;;5.35;;
53903;SDS011;39812;52.430;16.936;2023-02-28T16:09:23;15.13;;;7.22;;
53903;SDS011;39812;52.430;16.936;2023-02-28T16:11:49;13.15;;;6.38;;
53903;SDS011;39812;52.430;16.936;2023-02-28T16:14:27;14.20;;;6.80;;
53903;SDS011;39812;52.430;16.936;2023-02-28T16:17:03;14.40;;;6.57;;
53903;SDS011;39812;52.430;16.936;2023-02-28T16:21:56;16.70;;;7.00;;
53903;SDS011;39812;52.430;16.936;2023-02-28T16:24:22;12.13;;;6.40;;
53903;SDS011;39812;52.430;16.936;2023-02-28T16:26:48;13.88;;;6.72;;
53903;SDS011;39812;52.430;16.936;2023-02-28T16:29:23;15.10;;;6.93;;
53903;SDS011;39812;52.430;16.936;2023-02-28T16:31:57;16.88;;;6.97;;
53903;SDS011;39812;52.430;16.936;2023-02-28T16:34:23;17.58;;;7.10;;
53903;SDS011;39812;52.430;16.936;2023-02-28T16:36:49;19.15;;;9.15;;
53903;SDS011;39812;52.430;16.936;2023-02-28T16:39:16;18.15;;;8.50;;
53903;SDS011;39812;52.430;16.936;2023-02-28T16:41:42;22.13;;;9.82;;
53903;SDS011;39812;52.430;16.936;2023-02-28T16:44:11;22.00;;;9.55;;
53903;SDS011;39812;52.430;16.936;2023-02-28T16:46:45;22.00;;;10.27;;
53903;SDS011;39812;52.430;16.936;2023-02-28T16:49:11;19.75;;;8.98;;
53903;SDS011;39812;52.430;16.936;2023-02-28T16:51:37;19.02;;;9.02;;
53903;SDS011;39812;52.430;16.936;2023-02-28T16:54:03;18.15;;;9.43;;
53903;SDS011;39812;52.430;16.936;2023-02-28T16:56:29;20.95;;;8.35;;
53903;SDS011;39812;52.430;16.936;2023-02-28T16:58:55;19.48;;;9.18;;
53903;SDS011;39812;52.430;16.936;2023-02-28T17:01:26;19.15;;;9.07;;
53903;SDS011;39812;52.430;16.936;2023-02-28T17:03:53;21.23;;;9.48;;
53903;SDS011;39812;52.430;16.936;2023-02-28T17:06:20;28.02;;;8.57;;
53903;SDS011;39812;52.430;16.936;2023-02-28T17:08:49;22.10;;;8.98;;
53903;SDS011;39812;52.430;16.936;2023-02-28T17:11:16;22.40;;;8.38;;